This is the latest recevied weather packets stored in our database for station/object OE3XAM-13. If no packets are shown the sender has not sent any weather packets the latest 1 day(s).
| Time | Temp. | Humidity | Pressure | Rain* | Wind** | Luminosity | Snow |
|---|---|---|---|---|---|---|---|
| 1836274462 | 12.22° C | 87% | 987 hPa | 0 mm | 0 m/s | - | - |
| 1778017288 | 16.11° C | 64% | 971 hPa | 0 mm | 0.89 m/s, 0° | - | - |
| 1778015488 | 17.22° C | 58% | 971 hPa | 0 mm | 0.45 m/s, 0° | - | - |
| 1778013688 | 17.22° C | 57% | 971 hPa | 0 mm | 0 m/s | - | - |
| 1778011888 | 17.78° C | 56% | 970 hPa | 0 mm | 2.24 m/s, 0° | - | - |
| 1778010088 | 18.33° C | 52% | 970 hPa | 0 mm | 2.24 m/s, 0° | - | - |
| 1778008288 | 20° C | 43% | 969 hPa | 0 mm | 1.79 m/s, 0° | - | - |
| 1778006488 | 19.44° C | 47% | 968 hPa | 0 mm | 2.24 m/s, 0° | - | - |
| 1778004688 | 20.56° C | 42% | 967 hPa | 0 mm | 0 m/s | - | - |
| 1778002888 | 24.44° C | 31% | 967 hPa | 0 mm | 0 m/s | - | - |
| 1778001088 | 25.56° C | 27% | 967 hPa | 0 mm | 1.34 m/s, 0° | - | - |
| 1777999288 | 26.67° C | 24% | 968 hPa | 0 mm | 3.13 m/s, 0° | - | - |
| 1777997488 | 28.33° C | 24% | 967 hPa | 0 mm | 2.68 m/s, 0° | - | - |
| 1777995688 | 28.33° C | 23% | 968 hPa | 0 mm | 1.34 m/s, 0° | - | - |
| 1777993888 | 28.33° C | 23% | 968 hPa | 0 mm | 1.79 m/s, 0° | - | - |
| 1777992088 | 27.78° C | 24% | 968 hPa | 0 mm | 1.79 m/s, 0° | - | - |
| 1777990288 | 29.44° C | 23% | 969 hPa | 0 mm | 0.45 m/s, 0° | - | - |
| 1777988488 | 27.78° C | 25% | 969 hPa | 0 mm | 1.34 m/s, 0° | - | - |
| 1777986688 | 29.44° C | 24% | 969 hPa | 0 mm | 1.79 m/s, 0° | - | - |
| 1777984888 | 28.89° C | 24% | 970 hPa | 0 mm | 0 m/s | - | - |
| 1777983088 | 28.89° C | 24% | 970 hPa | 0 mm | 0 m/s | - | - |
| 1777981288 | 27.78° C | 26% | 971 hPa | 0 mm | 2.68 m/s, 0° | - | - |
| 1777979488 | 27.22° C | 29% | 970 hPa | 0 mm | 0.89 m/s, 0° | - | - |
| 1777977688 | 26.67° C | 31% | 971 hPa | 0 mm | 0.45 m/s, 0° | - | - |
| 1777975888 | 26.11° C | 33% | 971 hPa | 0 mm | 1.79 m/s, 0° | - | - |
* Rain latest hour (hover to see other rain measurements)
** Current wind speed in m/s (hover to see current wind gust speed)